sensor_id;sensor_type;location;lat;lon;timestamp;P1;durP1;ratioP1;P2;durP2;ratioP2
12350;SDS011;6240;51.538;7.696;2022-12-04T00:00:55;28.93;;;17.73;;
12350;SDS011;6240;51.538;7.696;2022-12-04T00:03:23;28.73;;;16.30;;
12350;SDS011;6240;51.538;7.696;2022-12-04T00:05:51;32.23;;;18.50;;
12350;SDS011;6240;51.538;7.696;2022-12-04T00:08:27;31.07;;;18.50;;
12350;SDS011;6240;51.538;7.696;2022-12-04T00:10:55;30.13;;;18.43;;
12350;SDS011;6240;51.538;7.696;2022-12-04T00:13:23;31.27;;;18.20;;
12350;SDS011;6240;51.538;7.696;2022-12-04T00:15:50;31.17;;;18.13;;
12350;SDS011;6240;51.538;7.696;2022-12-04T00:18:19;30.23;;;18.13;;
12350;SDS011;6240;51.538;7.696;2022-12-04T00:20:47;28.47;;;17.53;;
12350;SDS011;6240;51.538;7.696;2022-12-04T00:23:15;29.23;;;18.03;;
12350;SDS011;6240;51.538;7.696;2022-12-04T00:25:43;28.47;;;17.87;;
12350;SDS011;6240;51.538;7.696;2022-12-04T00:28:12;29.03;;;18.17;;
12350;SDS011;6240;51.538;7.696;2022-12-04T00:30:40;30.00;;;17.53;;
12350;SDS011;6240;51.538;7.696;2022-12-04T00:33:08;31.77;;;18.77;;
12350;SDS011;6240;51.538;7.696;2022-12-04T00:35:36;29.00;;;17.43;;
12350;SDS011;6240;51.538;7.696;2022-12-04T00:38:04;26.37;;;16.77;;
12350;SDS011;6240;51.538;7.696;2022-12-04T00:40:31;29.60;;;18.33;;
12350;SDS011;6240;51.538;7.696;2022-12-04T00:42:58;30.03;;;17.77;;
12350;SDS011;6240;51.538;7.696;2022-12-04T00:45:25;28.03;;;17.40;;
12350;SDS011;6240;51.538;7.696;2022-12-04T00:47:53;28.57;;;17.70;;
12350;SDS011;6240;51.538;7.696;2022-12-04T00:50:20;27.90;;;17.57;;
12350;SDS011;6240;51.538;7.696;2022-12-04T00:52:48;32.20;;;17.47;;
12350;SDS011;6240;51.538;7.696;2022-12-04T00:55:16;24.80;;;16.20;;
12350;SDS011;6240;51.538;7.696;2022-12-04T00:57:43;27.27;;;16.77;;
12350;SDS011;6240;51.538;7.696;2022-12-04T01:00:11;26.57;;;16.43;;
12350;SDS011;6240;51.538;7.696;2022-12-04T01:02:38;25.73;;;16.67;;
12350;SDS011;6240;51.538;7.696;2022-12-04T01:05:05;28.57;;;17.03;;
12350;SDS011;6240;51.538;7.696;2022-12-04T01:07:32;24.87;;;16.23;;
12350;SDS011;6240;51.538;7.696;2022-12-04T01:10:04;27.43;;;16.87;;
12350;SDS011;6240;51.538;7.696;2022-12-04T01:12:32;26.67;;;16.90;;
12350;SDS011;6240;51.538;7.696;2022-12-04T01:14:59;27.57;;;16.37;;
12350;SDS011;6240;51.538;7.696;2022-12-04T01:17:26;25.13;;;15.77;;
12350;SDS011;6240;51.538;7.696;2022-12-04T01:19:53;26.57;;;16.77;;
12350;SDS011;6240;51.538;7.696;2022-12-04T01:22:21;24.07;;;15.07;;
12350;SDS011;6240;51.538;7.696;2022-12-04T01:24:48;23.70;;;14.70;;
12350;SDS011;6240;51.538;7.696;2022-12-04T01:27:16;26.00;;;15.57;;
12350;SDS011;6240;51.538;7.696;2022-12-04T01:29:44;25.97;;;15.73;;
12350;SDS011;6240;51.538;7.696;2022-12-04T01:32:11;22.27;;;14.40;;
12350;SDS011;6240;51.538;7.696;2022-12-04T01:34:38;24.20;;;15.63;;
12350;SDS011;6240;51.538;7.696;2022-12-04T01:37:05;22.43;;;14.80;;
12350;SDS011;6240;51.538;7.696;2022-12-04T01:39:34;25.67;;;14.63;;
12350;SDS011;6240;51.538;7.696;2022-12-04T01:42:01;23.00;;;14.47;;
12350;SDS011;6240;51.538;7.696;2022-12-04T01:44:30;21.73;;;13.67;;
12350;SDS011;6240;51.538;7.696;2022-12-04T01:46:58;21.50;;;13.93;;
12350;SDS011;6240;51.538;7.696;2022-12-04T01:49:27;21.17;;;14.60;;
12350;SDS011;6240;51.538;7.696;2022-12-04T01:51:56;22.97;;;14.20;;
12350;SDS011;6240;51.538;7.696;2022-12-04T01:54:25;20.63;;;13.27;;
12350;SDS011;6240;51.538;7.696;2022-12-04T01:56:54;21.83;;;14.33;;
12350;SDS011;6240;51.538;7.696;2022-12-04T01:59:24;19.27;;;13.10;;
12350;SDS011;6240;51.538;7.696;2022-12-04T02:01:54;23.67;;;13.97;;
12350;SDS011;6240;51.538;7.696;2022-12-04T02:04:23;21.13;;;14.10;;
12350;SDS011;6240;51.538;7.696;2022-12-04T02:06:50;21.50;;;14.17;;
12350;SDS011;6240;51.538;7.696;2022-12-04T02:09:17;24.13;;;15.40;;
12350;SDS011;6240;51.538;7.696;2022-12-04T02:11:49;22.03;;;13.60;;
12350;SDS011;6240;51.538;7.696;2022-12-04T02:14:19;22.90;;;13.73;;
12350;SDS011;6240;51.538;7.696;2022-12-04T02:16:55;21.17;;;13.10;;
12350;SDS011;6240;51.538;7.696;2022-12-04T02:22:13;23.87;;;14.20;;
12350;SDS011;6240;51.538;7.696;2022-12-04T02:24:46;21.50;;;12.83;;
12350;SDS011;6240;51.538;7.696;2022-12-04T02:27:21;21.57;;;13.63;;
12350;SDS011;6240;51.538;7.696;2022-12-04T02:29:54;21.83;;;14.30;;
12350;SDS011;6240;51.538;7.696;2022-12-04T02:32:25;20.50;;;13.60;;
12350;SDS011;6240;51.538;7.696;2022-12-04T02:34:54;20.27;;;13.30;;
12350;SDS011;6240;51.538;7.696;2022-12-04T02:37:23;20.83;;;13.20;;
12350;SDS011;6240;51.538;7.696;2022-12-04T02:39:53;21.80;;;13.77;;
12350;SDS011;6240;51.538;7.696;2022-12-04T02:42:24;20.97;;;12.87;;
12350;SDS011;6240;51.538;7.696;2022-12-04T02:44:56;19.37;;;12.37;;
12350;SDS011;6240;51.538;7.696;2022-12-04T02:47:24;22.80;;;14.03;;
12350;SDS011;6240;51.538;7.696;2022-12-04T02:49:53;20.17;;;13.33;;
12350;SDS011;6240;51.538;7.696;2022-12-04T02:52:25;22.53;;;14.00;;
12350;SDS011;6240;51.538;7.696;2022-12-04T02:54:55;19.23;;;12.97;;
12350;SDS011;6240;51.538;7.696;2022-12-04T02:57:24;21.27;;;13.73;;
12350;SDS011;6240;51.538;7.696;2022-12-04T02:59:55;23.50;;;14.63;;
12350;SDS011;6240;51.538;7.696;2022-12-04T03:02:24;22.13;;;13.53;;
12350;SDS011;6240;51.538;7.696;2022-12-04T03:04:53;22.80;;;13.87;;
12350;SDS011;6240;51.538;7.696;2022-12-04T03:07:22;21.03;;;13.30;;
12350;SDS011;6240;51.538;7.696;2022-12-04T03:09:52;22.47;;;13.93;;
12350;SDS011;6240;51.538;7.696;2022-12-04T03:12:23;20.00;;;13.63;;
12350;SDS011;6240;51.538;7.696;2022-12-04T03:14:53;23.77;;;13.93;;
12350;SDS011;6240;51.538;7.696;2022-12-04T03:17:24;22.80;;;13.77;;
12350;SDS011;6240;51.538;7.696;2022-12-04T03:19:53;23.33;;;14.83;;
12350;SDS011;6240;51.538;7.696;2022-12-04T03:22:22;23.17;;;15.57;;
12350;SDS011;6240;51.538;7.696;2022-12-04T03:24:50;22.50;;;15.40;;
12350;SDS011;6240;51.538;7.696;2022-12-04T03:27:19;23.03;;;14.23;;
12350;SDS011;6240;51.538;7.696;2022-12-04T03:29:51;24.77;;;15.33;;
12350;SDS011;6240;51.538;7.696;2022-12-04T03:32:20;24.23;;;15.77;;
12350;SDS011;6240;51.538;7.696;2022-12-04T03:34:55;25.37;;;15.93;;
12350;SDS011;6240;51.538;7.696;2022-12-04T03:37:24;25.17;;;14.57;;
12350;SDS011;6240;51.538;7.696;2022-12-04T03:39:54;25.80;;;16.13;;
12350;SDS011;6240;51.538;7.696;2022-12-04T03:42:23;24.30;;;14.87;;
12350;SDS011;6240;51.538;7.696;2022-12-04T03:44:52;25.20;;;15.37;;
12350;SDS011;6240;51.538;7.696;2022-12-04T03:47:23;24.00;;;15.40;;
12350;SDS011;6240;51.538;7.696;2022-12-04T03:49:54;24.67;;;15.17;;
12350;SDS011;6240;51.538;7.696;2022-12-04T03:52:23;23.90;;;14.53;;
12350;SDS011;6240;51.538;7.696;2022-12-04T03:54:54;24.90;;;15.53;;
12350;SDS011;6240;51.538;7.696;2022-12-04T03:57:24;21.97;;;13.97;;
12350;SDS011;6240;51.538;7.696;2022-12-04T03:59:55;22.87;;;14.40;;
12350;SDS011;6240;51.538;7.696;2022-12-04T04:02:25;23.93;;;14.60;;
12350;SDS011;6240;51.538;7.696;2022-12-04T04:04:56;23.30;;;13.73;;
12350;SDS011;6240;51.538;7.696;2022-12-04T04:07:25;24.80;;;15.07;;
12350;SDS011;6240;51.538;7.696;2022-12-04T04:09:56;20.87;;;13.90;;
12350;SDS011;6240;51.538;7.696;2022-12-04T04:12:25;21.67;;;13.77;;
12350;SDS011;6240;51.538;7.696;2022-12-04T04:14:53;19.83;;;13.03;;
12350;SDS011;6240;51.538;7.696;2022-12-04T04:17:40;20.73;;;14.00;;
12350;SDS011;6240;51.538;7.696;2022-12-04T04:20:28;22.17;;;13.60;;
12350;SDS011;6240;51.538;7.696;2022-12-04T04:23:14;24.87;;;14.33;;
12350;SDS011;6240;51.538;7.696;2022-12-04T04:26:15;24.00;;;14.27;;
12350;SDS011;6240;51.538;7.696;2022-12-04T04:28:44;24.83;;;15.13;;
12350;SDS011;6240;51.538;7.696;2022-12-04T04:31:16;23.80;;;14.93;;
12350;SDS011;6240;51.538;7.696;2022-12-04T04:33:49;24.43;;;15.33;;
12350;SDS011;6240;51.538;7.696;2022-12-04T04:36:23;22.83;;;14.60;;
12350;SDS011;6240;51.538;7.696;2022-12-04T04:38:55;23.67;;;15.83;;
12350;SDS011;6240;51.538;7.696;2022-12-04T04:41:27;27.13;;;17.43;;
12350;SDS011;6240;51.538;7.696;2022-12-04T04:43:56;26.47;;;16.93;;
12350;SDS011;6240;51.538;7.696;2022-12-04T04:46:27;25.23;;;16.33;;
12350;SDS011;6240;51.538;7.696;2022-12-04T04:48:56;25.60;;;15.97;;
12350;SDS011;6240;51.538;7.696;2022-12-04T04:51:25;24.57;;;15.43;;
12350;SDS011;6240;51.538;7.696;2022-12-04T04:53:54;24.20;;;16.00;;
12350;SDS011;6240;51.538;7.696;2022-12-04T04:56:22;26.27;;;16.27;;
12350;SDS011;6240;51.538;7.696;2022-12-04T04:58:50;24.17;;;15.97;;
12350;SDS011;6240;51.538;7.696;2022-12-04T05:01:17;26.00;;;15.87;;
12350;SDS011;6240;51.538;7.696;2022-12-04T05:03:45;22.67;;;15.27;;
12350;SDS011;6240;51.538;7.696;2022-12-04T05:06:12;22.97;;;15.30;;
12350;SDS011;6240;51.538;7.696;2022-12-04T05:08:41;22.70;;;14.20;;
12350;SDS011;6240;51.538;7.696;2022-12-04T05:11:10;21.90;;;14.70;;
12350;SDS011;6240;51.538;7.696;2022-12-04T05:13:37;25.03;;;15.67;;
12350;SDS011;6240;51.538;7.696;2022-12-04T05:16:05;23.10;;;14.50;;
12350;SDS011;6240;51.538;7.696;2022-12-04T05:18:33;19.30;;;13.13;;
12350;SDS011;6240;51.538;7.696;2022-12-04T05:21:03;21.73;;;14.43;;
12350;SDS011;6240;51.538;7.696;2022-12-04T05:23:29;21.37;;;14.83;;
12350;SDS011;6240;51.538;7.696;2022-12-04T05:26:01;21.33;;;13.47;;
12350;SDS011;6240;51.538;7.696;2022-12-04T05:28:29;20.70;;;13.10;;
12350;SDS011;6240;51.538;7.696;2022-12-04T05:30:57;18.47;;;11.67;;
12350;SDS011;6240;51.538;7.696;2022-12-04T05:33:24;16.70;;;11.43;;
12350;SDS011;6240;51.538;7.696;2022-12-04T05:35:55;19.57;;;12.83;;
12350;SDS011;6240;51.538;7.696;2022-12-04T05:38:22;19.03;;;12.73;;
12350;SDS011;6240;51.538;7.696;2022-12-04T05:40:49;19.30;;;12.83;;
12350;SDS011;6240;51.538;7.696;2022-12-04T05:43:18;19.27;;;12.60;;
12350;SDS011;6240;51.538;7.696;2022-12-04T05:45:45;16.77;;;11.10;;
12350;SDS011;6240;51.538;7.696;2022-12-04T05:48:12;16.20;;;10.63;;
12350;SDS011;6240;51.538;7.696;2022-12-04T05:50:39;16.37;;;12.00;;
12350;SDS011;6240;51.538;7.696;2022-12-04T05:53:07;18.23;;;12.63;;
12350;SDS011;6240;51.538;7.696;2022-12-04T05:55:34;18.90;;;12.73;;
12350;SDS011;6240;51.538;7.696;2022-12-04T05:58:01;16.97;;;12.13;;
12350;SDS011;6240;51.538;7.696;2022-12-04T06:00:30;16.37;;;11.80;;
12350;SDS011;6240;51.538;7.696;2022-12-04T06:02:57;16.43;;;11.03;;
12350;SDS011;6240;51.538;7.696;2022-12-04T06:05:24;17.03;;;11.90;;
12350;SDS011;6240;51.538;7.696;2022-12-04T06:07:52;17.07;;;12.13;;
12350;SDS011;6240;51.538;7.696;2022-12-04T06:10:19;17.90;;;11.83;;
12350;SDS011;6240;51.538;7.696;2022-12-04T06:12:46;17.10;;;12.37;;
12350;SDS011;6240;51.538;7.696;2022-12-04T06:15:13;18.73;;;12.80;;
12350;SDS011;6240;51.538;7.696;2022-12-04T06:17:42;18.40;;;12.20;;
12350;SDS011;6240;51.538;7.696;2022-12-04T06:20:10;17.43;;;11.60;;
12350;SDS011;6240;51.538;7.696;2022-12-04T06:22:37;18.70;;;12.23;;
12350;SDS011;6240;51.538;7.696;2022-12-04T06:25:04;19.97;;;12.57;;
12350;SDS011;6240;51.538;7.696;2022-12-04T06:27:32;17.17;;;11.93;;
12350;SDS011;6240;51.538;7.696;2022-12-04T06:30:00;15.27;;;11.50;;
12350;SDS011;6240;51.538;7.696;2022-12-04T06:32:27;14.93;;;10.70;;
12350;SDS011;6240;51.538;7.696;2022-12-04T06:34:55;14.47;;;9.43;;
12350;SDS011;6240;51.538;7.696;2022-12-04T06:37:23;14.47;;;10.00;;
12350;SDS011;6240;51.538;7.696;2022-12-04T06:39:51;15.80;;;11.30;;
12350;SDS011;6240;51.538;7.696;2022-12-04T06:42:18;16.73;;;11.50;;
12350;SDS011;6240;51.538;7.696;2022-12-04T06:44:45;16.10;;;11.27;;
12350;SDS011;6240;51.538;7.696;2022-12-04T06:47:12;17.23;;;10.83;;
12350;SDS011;6240;51.538;7.696;2022-12-04T06:49:40;16.15;;;10.85;;
12350;SDS011;6240;51.538;7.696;2022-12-04T06:52:08;15.43;;;10.97;;
12350;SDS011;6240;51.538;7.696;2022-12-04T06:54:35;14.07;;;10.27;;
12350;SDS011;6240;51.538;7.696;2022-12-04T06:57:03;16.17;;;10.80;;
12350;SDS011;6240;51.538;7.696;2022-12-04T06:59:32;16.33;;;10.80;;
12350;SDS011;6240;51.538;7.696;2022-12-04T07:01:59;16.67;;;10.83;;
12350;SDS011;6240;51.538;7.696;2022-12-04T07:04:27;16.67;;;11.23;;
12350;SDS011;6240;51.538;7.696;2022-12-04T07:06:54;15.47;;;10.73;;
12350;SDS011;6240;51.538;7.696;2022-12-04T07:09:23;15.57;;;11.10;;
12350;SDS011;6240;51.538;7.696;2022-12-04T07:11:50;16.37;;;11.13;;
12350;SDS011;6240;51.538;7.696;2022-12-04T07:14:18;15.63;;;11.33;;
12350;SDS011;6240;51.538;7.696;2022-12-04T07:16:46;14.73;;;10.57;;
12350;SDS011;6240;51.538;7.696;2022-12-04T07:19:14;15.47;;;10.30;;
12350;SDS011;6240;51.538;7.696;2022-12-04T07:21:41;16.50;;;10.67;;
12350;SDS011;6240;51.538;7.696;2022-12-04T07:24:10;18.33;;;10.97;;
12350;SDS011;6240;51.538;7.696;2022-12-04T07:26:41;14.60;;;10.20;;
12350;SDS011;6240;51.538;7.696;2022-12-04T07:29:08;16.17;;;10.87;;
12350;SDS011;6240;51.538;7.696;2022-12-04T07:31:35;16.47;;;11.07;;
12350;SDS011;6240;51.538;7.696;2022-12-04T07:34:02;19.07;;;11.83;;
12350;SDS011;6240;51.538;7.696;2022-12-04T07:36:30;18.47;;;11.53;;
12350;SDS011;6240;51.538;7.696;2022-12-04T07:38:57;17.17;;;11.17;;
12350;SDS011;6240;51.538;7.696;2022-12-04T07:41:24;18.23;;;11.60;;
12350;SDS011;6240;51.538;7.696;2022-12-04T07:43:53;18.50;;;12.47;;
12350;SDS011;6240;51.538;7.696;2022-12-04T07:46:22;17.53;;;12.23;;
12350;SDS011;6240;51.538;7.696;2022-12-04T07:48:49;18.87;;;11.50;;
12350;SDS011;6240;51.538;7.696;2022-12-04T07:51:17;17.80;;;11.70;;
12350;SDS011;6240;51.538;7.696;2022-12-04T07:53:44;20.33;;;11.87;;
12350;SDS011;6240;51.538;7.696;2022-12-04T07:56:12;17.90;;;11.83;;
12350;SDS011;6240;51.538;7.696;2022-12-04T07:58:39;18.83;;;12.60;;
12350;SDS011;6240;51.538;7.696;2022-12-04T08:01:09;20.67;;;11.77;;
12350;SDS011;6240;51.538;7.696;2022-12-04T08:03:36;18.50;;;12.93;;
12350;SDS011;6240;51.538;7.696;2022-12-04T08:06:04;19.00;;;12.37;;
12350;SDS011;6240;51.538;7.696;2022-12-04T08:08:33;18.17;;;12.20;;
12350;SDS011;6240;51.538;7.696;2022-12-04T08:11:04;20.33;;;13.47;;
12350;SDS011;6240;51.538;7.696;2022-12-04T08:13:36;16.43;;;12.03;;
12350;SDS011;6240;51.538;7.696;2022-12-04T08:16:04;18.47;;;12.60;;
12350;SDS011;6240;51.538;7.696;2022-12-04T08:18:32;20.47;;;13.53;;
12350;SDS011;6240;51.538;7.696;2022-12-04T08:21:03;17.93;;;12.77;;
12350;SDS011;6240;51.538;7.696;2022-12-04T08:23:31;19.63;;;12.77;;
12350;SDS011;6240;51.538;7.696;2022-12-04T08:25:58;17.57;;;12.37;;
12350;SDS011;6240;51.538;7.696;2022-12-04T08:28:25;18.90;;;12.77;;
12350;SDS011;6240;51.538;7.696;2022-12-04T08:30:52;18.17;;;12.53;;
12350;SDS011;6240;51.538;7.696;2022-12-04T08:33:20;21.27;;;13.27;;
12350;SDS011;6240;51.538;7.696;2022-12-04T08:35:48;18.27;;;11.70;;
12350;SDS011;6240;51.538;7.696;2022-12-04T08:38:15;21.00;;;13.20;;
12350;SDS011;6240;51.538;7.696;2022-12-04T08:40:43;20.37;;;13.13;;
12350;SDS011;6240;51.538;7.696;2022-12-04T08:43:10;21.30;;;12.97;;
12350;SDS011;6240;51.538;7.696;2022-12-04T08:45:37;19.03;;;13.33;;
12350;SDS011;6240;51.538;7.696;2022-12-04T08:48:04;22.10;;;13.47;;
12350;SDS011;6240;51.538;7.696;2022-12-04T08:50:32;23.00;;;13.73;;
12350;SDS011;6240;51.538;7.696;2022-12-04T08:53:00;22.60;;;14.87;;
12350;SDS011;6240;51.538;7.696;2022-12-04T08:55:28;20.93;;;13.17;;
12350;SDS011;6240;51.538;7.696;2022-12-04T08:57:58;18.77;;;12.97;;
12350;SDS011;6240;51.538;7.696;2022-12-04T09:00:26;17.60;;;11.77;;
12350;SDS011;6240;51.538;7.696;2022-12-04T09:02:55;19.03;;;12.23;;
12350;SDS011;6240;51.538;7.696;2022-12-04T09:05:22;16.10;;;11.27;;
12350;SDS011;6240;51.538;7.696;2022-12-04T09:07:50;16.53;;;11.63;;
12350;SDS011;6240;51.538;7.696;2022-12-04T09:10:18;18.20;;;11.80;;
12350;SDS011;6240;51.538;7.696;2022-12-04T09:12:45;21.57;;;13.00;;
12350;SDS011;6240;51.538;7.696;2022-12-04T09:15:13;17.43;;;12.30;;
12350;SDS011;6240;51.538;7.696;2022-12-04T09:17:40;20.47;;;13.70;;
12350;SDS011;6240;51.538;7.696;2022-12-04T09:20:07;18.23;;;11.53;;
12350;SDS011;6240;51.538;7.696;2022-12-04T09:22:35;18.43;;;12.37;;
12350;SDS011;6240;51.538;7.696;2022-12-04T09:25:03;17.40;;;12.07;;
12350;SDS011;6240;51.538;7.696;2022-12-04T09:27:35;20.27;;;13.07;;
12350;SDS011;6240;51.538;7.696;2022-12-04T09:30:02;19.70;;;12.33;;
12350;SDS011;6240;51.538;7.696;2022-12-04T09:32:30;19.60;;;12.57;;
12350;SDS011;6240;51.538;7.696;2022-12-04T09:34:57;18.30;;;12.27;;
12350;SDS011;6240;51.538;7.696;2022-12-04T09:37:24;17.70;;;11.23;;
12350;SDS011;6240;51.538;7.696;2022-12-04T09:39:51;19.77;;;12.70;;
12350;SDS011;6240;51.538;7.696;2022-12-04T09:42:22;19.07;;;12.20;;
12350;SDS011;6240;51.538;7.696;2022-12-04T09:44:54;22.10;;;12.80;;
12350;SDS011;6240;51.538;7.696;2022-12-04T09:47:24;20.37;;;13.33;;
12350;SDS011;6240;51.538;7.696;2022-12-04T09:49:54;19.03;;;12.70;;
12350;SDS011;6240;51.538;7.696;2022-12-04T09:52:28;17.27;;;12.00;;
12350;SDS011;6240;51.538;7.696;2022-12-04T09:54:59;19.73;;;12.97;;
12350;SDS011;6240;51.538;7.696;2022-12-04T09:57:30;18.70;;;12.70;;
12350;SDS011;6240;51.538;7.696;2022-12-04T10:00:05;16.57;;;12.40;;
12350;SDS011;6240;51.538;7.696;2022-12-04T10:02:33;19.03;;;12.63;;
12350;SDS011;6240;51.538;7.696;2022-12-04T10:05:01;19.67;;;12.17;;
12350;SDS011;6240;51.538;7.696;2022-12-04T10:07:30;21.07;;;12.93;;
12350;SDS011;6240;51.538;7.696;2022-12-04T10:09:59;20.53;;;12.67;;
12350;SDS011;6240;51.538;7.696;2022-12-04T10:12:29;19.77;;;12.73;;
12350;SDS011;6240;51.538;7.696;2022-12-04T10:15:03;17.53;;;11.63;;
12350;SDS011;6240;51.538;7.696;2022-12-04T10:17:38;19.27;;;12.03;;
12350;SDS011;6240;51.538;7.696;2022-12-04T10:20:12;19.27;;;11.80;;
12350;SDS011;6240;51.538;7.696;2022-12-04T10:22:43;17.17;;;11.80;;
12350;SDS011;6240;51.538;7.696;2022-12-04T10:25:15;20.40;;;14.07;;
12350;SDS011;6240;51.538;7.696;2022-12-04T10:27:45;17.37;;;12.13;;
12350;SDS011;6240;51.538;7.696;2022-12-04T10:30:15;18.10;;;11.97;;
12350;SDS011;6240;51.538;7.696;2022-12-04T10:32:44;19.57;;;12.17;;
12350;SDS011;6240;51.538;7.696;2022-12-04T10:35:15;17.63;;;12.10;;
12350;SDS011;6240;51.538;7.696;2022-12-04T10:37:45;18.87;;;12.20;;
12350;SDS011;6240;51.538;7.696;2022-12-04T10:40:15;19.47;;;12.67;;
12350;SDS011;6240;51.538;7.696;2022-12-04T10:42:45;18.20;;;11.47;;
12350;SDS011;6240;51.538;7.696;2022-12-04T10:45:16;16.87;;;11.93;;
12350;SDS011;6240;51.538;7.696;2022-12-04T10:47:46;19.43;;;11.77;;
12350;SDS011;6240;51.538;7.696;2022-12-04T10:50:15;16.20;;;12.13;;
12350;SDS011;6240;51.538;7.696;2022-12-04T10:52:43;16.97;;;11.10;;
12350;SDS011;6240;51.538;7.696;2022-12-04T10:55:10;16.93;;;11.37;;
12350;SDS011;6240;51.538;7.696;2022-12-04T10:57:38;17.97;;;11.73;;
12350;SDS011;6240;51.538;7.696;2022-12-04T11:02:50;19.23;;;12.03;;
12350;SDS011;6240;51.538;7.696;2022-12-04T11:05:24;17.87;;;11.93;;
12350;SDS011;6240;51.538;7.696;2022-12-04T11:07:52;18.03;;;11.90;;
12350;SDS011;6240;51.538;7.696;2022-12-04T11:10:20;16.93;;;12.27;;
12350;SDS011;6240;51.538;7.696;2022-12-04T11:12:52;17.67;;;11.53;;
12350;SDS011;6240;51.538;7.696;2022-12-04T11:15:20;16.93;;;11.63;;
12350;SDS011;6240;51.538;7.696;2022-12-04T11:17:48;18.63;;;11.90;;
12350;SDS011;6240;51.538;7.696;2022-12-04T11:20:18;17.43;;;11.33;;
12350;SDS011;6240;51.538;7.696;2022-12-04T11:22:49;14.20;;;10.93;;
12350;SDS011;6240;51.538;7.696;2022-12-04T11:25:19;16.10;;;11.10;;
12350;SDS011;6240;51.538;7.696;2022-12-04T11:27:48;15.90;;;11.13;;
12350;SDS011;6240;51.538;7.696;2022-12-04T11:30:20;15.80;;;11.27;;
12350;SDS011;6240;51.538;7.696;2022-12-04T11:32:48;16.27;;;10.57;;
12350;SDS011;6240;51.538;7.696;2022-12-04T11:35:15;15.63;;;11.30;;
12350;SDS011;6240;51.538;7.696;2022-12-04T11:37:50;15.67;;;11.07;;
12350;SDS011;6240;51.538;7.696;2022-12-04T11:40:19;13.80;;;10.17;;
12350;SDS011;6240;51.538;7.696;2022-12-04T11:42:55;15.30;;;11.00;;
12350;SDS011;6240;51.538;7.696;2022-12-04T11:45:23;16.60;;;11.23;;
12350;SDS011;6240;51.538;7.696;2022-12-04T11:47:53;14.33;;;10.80;;
12350;SDS011;6240;51.538;7.696;2022-12-04T11:50:24;15.77;;;10.87;;
12350;SDS011;6240;51.538;7.696;2022-12-04T11:52:57;15.90;;;10.80;;
12350;SDS011;6240;51.538;7.696;2022-12-04T11:55:28;16.27;;;11.60;;
12350;SDS011;6240;51.538;7.696;2022-12-04T11:58:03;13.93;;;10.43;;
12350;SDS011;6240;51.538;7.696;2022-12-04T12:00:37;16.10;;;11.00;;
12350;SDS011;6240;51.538;7.696;2022-12-04T12:03:09;15.57;;;10.60;;
12350;SDS011;6240;51.538;7.696;2022-12-04T12:08:23;14.37;;;10.13;;
12350;SDS011;6240;51.538;7.696;2022-12-04T12:10:52;13.67;;;9.20;;
12350;SDS011;6240;51.538;7.696;2022-12-04T12:13:24;13.17;;;9.43;;
12350;SDS011;6240;51.538;7.696;2022-12-04T12:15:55;14.73;;;10.60;;
12350;SDS011;6240;51.538;7.696;2022-12-04T12:18:32;17.70;;;10.90;;
12350;SDS011;6240;51.538;7.696;2022-12-04T12:21:04;13.17;;;9.10;;
12350;SDS011;6240;51.538;7.696;2022-12-04T12:23:38;13.00;;;9.60;;
12350;SDS011;6240;51.538;7.696;2022-12-04T12:26:11;13.07;;;10.03;;
12350;SDS011;6240;51.538;7.696;2022-12-04T12:31:39;12.87;;;9.87;;
12350;SDS011;6240;51.538;7.696;2022-12-04T12:34:10;14.63;;;10.47;;
12350;SDS011;6240;51.538;7.696;2022-12-04T12:36:39;13.20;;;10.20;;
12350;SDS011;6240;51.538;7.696;2022-12-04T12:39:10;15.67;;;11.03;;
12350;SDS011;6240;51.538;7.696;2022-12-04T12:41:38;13.73;;;10.40;;
12350;SDS011;6240;51.538;7.696;2022-12-04T12:44:10;12.00;;;10.10;;
12350;SDS011;6240;51.538;7.696;2022-12-04T12:46:40;13.53;;;9.80;;
12350;SDS011;6240;51.538;7.696;2022-12-04T12:49:14;14.50;;;9.77;;
12350;SDS011;6240;51.538;7.696;2022-12-04T12:51:46;11.73;;;9.10;;
12350;SDS011;6240;51.538;7.696;2022-12-04T12:54:18;11.83;;;9.53;;
12350;SDS011;6240;51.538;7.696;2022-12-04T12:56:50;15.20;;;9.80;;
12350;SDS011;6240;51.538;7.696;2022-12-04T12:59:20;13.47;;;9.53;;
12350;SDS011;6240;51.538;7.696;2022-12-04T13:01:49;15.43;;;9.70;;
12350;SDS011;6240;51.538;7.696;2022-12-04T13:04:21;12.53;;;9.17;;
12350;SDS011;6240;51.538;7.696;2022-12-04T13:06:52;14.43;;;10.33;;
12350;SDS011;6240;51.538;7.696;2022-12-04T13:09:25;14.10;;;9.97;;
12350;SDS011;6240;51.538;7.696;2022-12-04T13:11:56;14.30;;;10.50;;
12350;SDS011;6240;51.538;7.696;2022-12-04T13:14:25;13.13;;;10.13;;
12350;SDS011;6240;51.538;7.696;2022-12-04T13:16:53;11.90;;;9.27;;
12350;SDS011;6240;51.538;7.696;2022-12-04T13:19:23;12.47;;;9.97;;
12350;SDS011;6240;51.538;7.696;2022-12-04T13:21:53;13.43;;;9.47;;
12350;SDS011;6240;51.538;7.696;2022-12-04T13:27:13;13.97;;;9.83;;
12350;SDS011;6240;51.538;7.696;2022-12-04T13:29:49;11.60;;;9.60;;
12350;SDS011;6240;51.538;7.696;2022-12-04T13:32:29;13.87;;;9.80;;
12350;SDS011;6240;51.538;7.696;2022-12-04T13:35:00;14.93;;;9.93;;
12350;SDS011;6240;51.538;7.696;2022-12-04T13:37:32;12.23;;;9.50;;
12350;SDS011;6240;51.538;7.696;2022-12-04T13:45:47;13.07;;;8.97;;
12350;SDS011;6240;51.538;7.696;2022-12-04T13:48:27;13.77;;;9.77;;
12350;SDS011;6240;51.538;7.696;2022-12-04T13:53:41;14.40;;;10.20;;
12350;SDS011;6240;51.538;7.696;2022-12-04T13:56:22;14.37;;;10.37;;
12350;SDS011;6240;51.538;7.696;2022-12-04T13:58:57;15.47;;;11.03;;
12350;SDS011;6240;51.538;7.696;2022-12-04T14:01:27;12.97;;;9.67;;
12350;SDS011;6240;51.538;7.696;2022-12-04T14:03:55;14.80;;;10.60;;
12350;SDS011;6240;51.538;7.696;2022-12-04T14:06:24;17.60;;;11.53;;
12350;SDS011;6240;51.538;7.696;2022-12-04T14:08:55;17.03;;;11.50;;
12350;SDS011;6240;51.538;7.696;2022-12-04T14:11:24;16.63;;;10.90;;
12350;SDS011;6240;51.538;7.696;2022-12-04T14:13:52;15.90;;;10.77;;
12350;SDS011;6240;51.538;7.696;2022-12-04T14:16:21;15.63;;;10.97;;
12350;SDS011;6240;51.538;7.696;2022-12-04T14:18:54;16.83;;;11.47;;
12350;SDS011;6240;51.538;7.696;2022-12-04T14:21:25;17.73;;;11.50;;
12350;SDS011;6240;51.538;7.696;2022-12-04T14:23:54;14.27;;;10.50;;
12350;SDS011;6240;51.538;7.696;2022-12-04T14:26:22;16.60;;;11.77;;
12350;SDS011;6240;51.538;7.696;2022-12-04T14:28:52;17.57;;;11.67;;
12350;SDS011;6240;51.538;7.696;2022-12-04T14:31:31;17.00;;;11.70;;
12350;SDS011;6240;51.538;7.696;2022-12-04T14:34:03;17.63;;;11.47;;
12350;SDS011;6240;51.538;7.696;2022-12-04T14:36:35;15.03;;;10.90;;
12350;SDS011;6240;51.538;7.696;2022-12-04T14:39:09;16.07;;;11.17;;
12350;SDS011;6240;51.538;7.696;2022-12-04T14:41:37;16.30;;;11.60;;
12350;SDS011;6240;51.538;7.696;2022-12-04T14:44:04;15.87;;;11.73;;
12350;SDS011;6240;51.538;7.696;2022-12-04T14:46:36;18.00;;;11.70;;
12350;SDS011;6240;51.538;7.696;2022-12-04T14:49:11;19.13;;;12.03;;
12350;SDS011;6240;51.538;7.696;2022-12-04T14:51:43;17.60;;;12.43;;
12350;SDS011;6240;51.538;7.696;2022-12-04T14:54:15;17.80;;;11.57;;
12350;SDS011;6240;51.538;7.696;2022-12-04T14:56:49;16.00;;;11.63;;
12350;SDS011;6240;51.538;7.696;2022-12-04T14:59:19;17.90;;;11.53;;
12350;SDS011;6240;51.538;7.696;2022-12-04T15:01:47;19.50;;;12.27;;
12350;SDS011;6240;51.538;7.696;2022-12-04T15:04:18;17.87;;;12.03;;
12350;SDS011;6240;51.538;7.696;2022-12-04T15:06:48;18.67;;;12.17;;
12350;SDS011;6240;51.538;7.696;2022-12-04T15:09:17;16.03;;;11.07;;
12350;SDS011;6240;51.538;7.696;2022-12-04T15:12:13;16.73;;;11.50;;